KSSC

Shaw AFB Airport

Sumter, South Carolina, USA
METAR KSSC 170321Z AUTO 00000KT 3SM BR FEW075 SCT095 24/23 A3008 RMK AO2 SLP185 $
Observed Flight Rules
Oct-17 @ 03:21 UTC (24 minutes ago) Marginal Visual Flight Rules
Visibility Clouds Conditions
3 miles
  • Few at 7,500' AGL
  • Scattered at 9,500' AGL
  • Mist
Temperatures Readings
Current 24°C / 75°F
Dewpoint 23°C / 73°F
Humidity 94%
Altimeter 30.08" Hg
Pressure 1018.5 hPa
Elevation 74
METAR KSSC 170321Z AUTO 00000KT 3SM BR FEW075 SCT095 24/23 A3008 RMK AO2 SLP185 $
Observed Flight Rules
Oct-17 @ 03:21 UTC
(24 minutes ago)
MVFR
Clouds
  • Few at 7,500' AGL
  • Scattered at 9,500' AGL
Conditions
  • Mist
Temperature Dewpoint
24°C / 75°F 23°C / 73°F
Humidity Altimeter Pressure
94% 30.08" Hg 1018.5 hPa